Time;durP1;ratioP1;P1;durP2;ratioP2;P2;SDS_P1;SDS_P2;PMS_P1;PMS_P2;Temp;Humidity;BMP_temperature;BMP_pressure;BME280_temperature;BME280_humidity;BME280_pressure;Samples;Min_cycle;Max_cycle;Signal;HPM_P1;HPM_P2
2023/04/03 00:00:41;;;;;;;1.27;0.75;;;1.20;99.90;;;;;;5052665;28;20067;-78
2023/04/03 00:03:06;;;;;;;3.10;0.73;;;1.10;99.90;;;;;;5069368;28;20494;-78
2023/04/03 00:05:32;;;;;;;0.85;0.40;;;0.80;99.90;;;;;;5073108;28;20074;-78
2023/04/03 00:07:58;;;;;;;2.80;0.80;;;0.90;99.90;;;;;;5069784;28;20127;-79
2023/04/03 00:10:24;;;;;;;1.40;0.65;;;0.70;99.90;;;;;;5090412;28;20123;-77
2023/04/03 00:12:50;;;;;;;2.15;0.65;;;1.40;99.90;;;;;;5054267;28;20079;-78
2023/04/03 00:15:15;;;;;;;1.58;0.80;;;0.90;99.90;;;;;;5073159;28;20059;-78
2023/04/03 00:17:41;;;;;;;1.77;0.90;;;1.20;99.90;;;;;;5090014;28;20106;-78
2023/04/03 00:20:07;;;;;;;2.38;0.85;;;0.70;99.90;;;;;;5090392;28;20048;-79
2023/04/03 00:22:33;;;;;;;1.48;0.60;;;0.70;99.90;;;;;;5071037;28;20176;-78
2023/04/03 00:24:59;;;;;;;5.03;0.85;;;0.80;99.90;;;;;;5057132;28;20461;-79
2023/04/03 00:27:24;;;;;;;3.97;0.73;;;1.00;99.90;;;;;;5046195;28;20045;-78
2023/04/03 00:29:50;;;;;;;3.88;0.80;;;1.30;99.90;;;;;;5058154;28;20044;-78
2023/04/03 00:32:16;;;;;;;1.02;0.70;;;1.30;99.90;;;;;;5074644;28;20127;-79
2023/04/03 00:34:41;;;;;;;1.65;0.75;;;0.90;99.90;;;;;;5074388;28;20044;-79
2023/04/03 00:37:07;;;;;;;3.03;0.57;;;1.00;99.90;;;;;;5057460;28;20105;-81
2023/04/03 00:39:33;;;;;;;3.53;0.80;;;0.90;99.90;;;;;;5073977;28;20037;-78
2023/04/03 00:41:58;;;;;;;2.05;0.73;;;0.90;99.90;;;;;;5063481;28;20599;-79
2023/04/03 00:44:33;;;;;;;1.35;0.60;;;1.30;99.90;;;;;;5044160;28;20048;-78
2023/04/03 00:47:00;;;;;;;0.73;0.40;;;0.70;99.90;;;;;;5075633;28;20063;-79
2023/04/03 00:49:26;;;;;;;2.90;1.02;;;1.00;99.90;;;;;;5063230;28;20056;-78
2023/04/03 00:51:53;;;;;;;3.95;0.73;;;0.60;99.90;;;;;;5077825;28;20051;-79
2023/04/03 00:54:19;;;;;;;2.25;0.70;;;0.50;99.90;;;;;;5051987;28;20044;-79
2023/04/03 00:56:45;;;;;;;2.17;0.77;;;0.40;99.90;;;;;;5074136;28;20044;-78
2023/04/03 00:59:22;;;;;;;1.35;0.70;;;0.60;99.90;;;;;;5063646;28;20128;-78
2023/04/03 01:01:48;;;;;;;1.60;0.70;;;0.50;99.90;;;;;;5080754;28;20456;-78
2023/04/03 01:04:26;;;;;;;2.17;0.70;;;0.50;99.90;;;;;;5056412;28;20040;-79
2023/04/03 01:06:52;;;;;;;3.80;0.90;;;1.00;99.90;;;;;;5090397;28;20131;-78
2023/04/03 01:09:18;;;;;;;1.48;0.70;;;0.60;99.90;;;;;;5075649;28;20050;-79
2023/04/03 01:11:44;;;;;;;2.78;0.68;;;0.30;99.90;;;;;;5044914;28;20124;-78
2023/04/03 01:14:10;;;;;;;2.17;0.80;;;0.40;99.90;;;;;;5062101;28;20103;-79
2023/04/03 01:16:35;;;;;;;1.92;1.30;;;0.40;99.90;;;;;;5054678;28;20044;-78
2023/04/03 01:19:03;;;;;;;3.63;1.35;;;0.20;99.90;;;;;;5071330;28;20106;-81
2023/04/03 01:21:47;;;;;;;2.53;0.90;;;0.10;99.90;;;;;;5068247;28;20478;-78
2023/04/03 01:24:27;;;;;;;3.55;0.77;;;0.10;99.90;;;;;;5067600;28;20138;-79
2023/04/03 01:26:53;;;;;;;4.90;1.15;;;0.20;99.90;;;;;;5061614;28;20053;-78
2023/04/03 01:29:20;;;;;;;1.90;1.25;;;0.40;99.90;;;;;;5037282;28;20041;-79
2023/04/03 01:32:12;;;;;;;2.08;0.90;;;0.30;99.90;;;;;;5062780;28;20466;-78
2023/04/03 01:34:38;;;;;;;2.95;0.80;;;0.00;99.90;;;;;;5060857;28;20177;-78
2023/04/03 01:37:03;;;;;;;1.85;1.00;;;0.50;99.90;;;;;;5063063;28;20123;-80
2023/04/03 01:39:29;;;;;;;5.03;0.77;;;0.20;99.90;;;;;;5058185;28;20537;-77
2023/04/03 01:41:55;;;;;;;5.00;1.17;;;0.00;99.90;;;;;;5069400;28;20044;-76
2023/04/03 01:44:20;;;;;;;3.42;0.70;;;0.20;99.90;;;;;;5050900;28;20066;-76
2023/04/03 01:46:46;;;;;;;2.28;0.98;;;0.20;99.90;;;;;;5082398;28;20048;-76
2023/04/03 01:49:12;;;;;;;2.10;0.88;;;0.70;99.90;;;;;;5050515;28;20498;-80
2023/04/03 01:51:38;;;;;;;4.43;1.27;;;0.20;99.90;;;;;;5037421;28;20040;-76
2023/04/03 01:54:04;;;;;;;2.13;0.98;;;0.20;99.90;;;;;;5077944;28;20133;-76
2023/04/03 01:56:30;;;;;;;3.25;1.30;;;0.20;99.90;;;;;;5080691;28;20553;-76
2023/04/03 01:58:55;;;;;;;2.92;1.02;;;0.10;99.90;;;;;;5053665;28;20138;-76
2023/04/03 02:01:21;;;;;;;3.35;1.55;;;0.00;99.90;;;;;;5069596;28;20090;-76
2023/04/03 02:03:47;;;;;;;4.38;1.17;;;-0.30;1.00;;;;;;5042518;28;20111;-76
2023/04/03 02:06:13;;;;;;;2.33;1.35;;;-0.10;1.00;;;;;;5059287;28;20044;-77
2023/04/03 02:08:38;;;;;;;1.00;0.70;;;0.10;1.00;;;;;;5069878;28;20048;-76
2023/04/03 02:11:04;;;;;;;2.70;1.10;;;0.20;1.00;;;;;;5056269;28;20052;-76
2023/04/03 02:13:30;;;;;;;2.65;0.80;;;-0.30;1.00;;;;;;5047251;28;20049;-76
2023/04/03 02:15:55;;;;;;;3.08;1.13;;;0.50;1.00;;;;;;5061430;28;20047;-76
2023/04/03 02:18:21;;;;;;;4.35;1.25;;;-0.20;1.00;;;;;;5032150;28;20554;-77
2023/04/03 02:20:47;;;;;;;3.78;1.13;;;-0.10;1.00;;;;;;5068227;28;20497;-76
2023/04/03 02:23:13;;;;;;;3.15;1.13;;;-0.50;1.00;;;;;;5018848;28;20444;-78
2023/04/03 02:25:38;;;;;;;4.32;1.33;;;-0.40;1.00;;;;;;5059226;28;20127;-77
2023/04/03 02:28:04;;;;;;;2.90;1.10;;;-0.30;1.00;;;;;;5053709;28;20036;-76
2023/04/03 02:30:30;;;;;;;4.47;1.10;;;-0.50;1.00;;;;;;5063079;28;20044;-75
2023/04/03 02:32:56;;;;;;;2.95;0.90;;;0.40;1.00;;;;;;5062291;28;20044;-75
2023/04/03 02:35:21;;;;;;;2.17;1.27;;;-0.50;1.00;;;;;;5048223;28;20486;-78
2023/04/03 02:37:47;;;;;;;1.88;1.15;;;-0.20;1.00;;;;;;5060542;28;20681;-78
2023/04/03 02:40:13;;;;;;;4.32;1.38;;;-0.60;1.00;;;;;;5054579;28;20036;-78
2023/04/03 02:42:38;;;;;;;3.63;1.45;;;-0.50;1.00;;;;;;5042943;28;20609;-79
2023/04/03 02:45:05;;;;;;;1.95;1.10;;;-0.80;1.00;;;;;;5062979;28;20052;-78
2023/04/03 02:47:31;;;;;;;5.97;1.63;;;-0.80;1.00;;;;;;5058843;28;20123;-78
2023/04/03 02:49:56;;;;;;;4.65;1.40;;;-0.40;1.00;;;;;;5070257;28;20147;-79
2023/04/03 02:52:22;;;;;;;2.40;1.08;;;-0.60;1.00;;;;;;5069169;28;20379;-81
2023/04/03 02:54:48;;;;;;;4.65;1.35;;;-0.50;1.00;;;;;;5075737;28;20048;-78
2023/04/03 02:57:14;;;;;;;4.55;1.55;;;-0.70;1.00;;;;;;5067617;28;20505;-78
2023/04/03 02:59:40;;;;;;;3.60;1.45;;;-0.90;1.00;;;;;;5073207;28;20759;-78
2023/04/03 03:02:10;;;;;;;3.35;1.25;;;-1.10;1.00;;;;;;5042300;28;20044;-78
2023/04/03 03:04:36;;;;;;;7.43;1.38;;;-1.00;1.00;;;;;;5073482;28;20102;-78
2023/04/03 03:07:02;;;;;;;3.05;1.05;;;-0.40;1.00;;;;;;5055225;28;20139;-78
2023/04/03 03:09:29;;;;;;;6.95;1.27;;;-1.00;1.00;;;;;;5068938;28;20127;-78
2023/04/03 03:11:55;;;;;;;3.85;1.40;;;-0.90;1.00;;;;;;5042531;28;20055;-77
2023/04/03 03:14:21;;;;;;;2.95;1.30;;;-0.70;1.00;;;;;;5046801;28;20607;-78
2023/04/03 03:16:46;;;;;;;3.50;1.30;;;-0.20;1.00;;;;;;5068118;28;20056;-78
2023/04/03 03:19:12;;;;;;;2.30;1.15;;;-1.10;1.00;;;;;;5062942;28;20052;-79
2023/04/03 03:21:38;;;;;;;4.32;1.50;;;-0.90;1.00;;;;;;5085013;28;20088;-78
2023/04/03 03:24:04;;;;;;;5.22;1.50;;;-1.10;1.00;;;;;;5072354;28;20044;-78
2023/04/03 03:26:30;;;;;;;4.13;1.52;;;-1.20;1.00;;;;;;5071995;28;20043;-78
2023/04/03 03:28:55;;;;;;;2.72;1.40;;;-1.70;1.00;;;;;;5078971;28;20055;-78
2023/04/03 03:31:21;;;;;;;3.28;1.23;;;-1.80;1.00;;;;;;5072134;28;20041;-78
2023/04/03 03:33:47;;;;;;;3.25;1.65;;;-1.50;1.00;;;;;;5056781;28;20148;-78
2023/04/03 03:36:12;;;;;;;2.72;1.40;;;-1.30;1.00;;;;;;5073095;28;20047;-78
2023/04/03 03:38:38;;;;;;;4.35;1.98;;;-1.20;1.00;;;;;;5076430;28;20071;-78
2023/04/03 03:41:04;;;;;;;3.08;1.23;;;-1.90;1.00;;;;;;5068571;28;20189;-78
2023/04/03 03:43:29;;;;;;;6.72;1.50;;;-2.00;1.00;;;;;;5072413;28;20489;-78
2023/04/03 03:45:56;;;;;;;6.28;1.60;;;-1.30;99.90;;;;;;5046783;28;20485;-78
2023/04/03 03:48:22;;;;;;;3.90;1.27;;;-1.70;99.90;;;;;;5079719;28;20052;-78
2023/04/03 03:50:49;;;;;;;5.00;1.30;;;-1.00;99.90;;;;;;5075844;28;20113;-77
2023/04/03 03:53:15;;;;;;;2.60;1.38;;;-1.60;99.90;;;;;;5070633;28;20032;-78
2023/04/03 03:55:41;;;;;;;3.35;1.50;;;-1.70;99.90;;;;;;5050427;28;20047;-78
2023/04/03 03:58:07;;;;;;;3.15;1.65;;;-0.70;99.90;;;;;;5059260;28;20051;-80
2023/04/03 04:00:32;;;;;;;5.93;1.52;;;-1.60;99.90;;;;;;5053511;28;20055;-78
2023/04/03 04:02:58;;;;;;;5.80;1.60;;;-0.60;99.90;;;;;;5054821;28;20126;-78
2023/04/03 04:05:24;;;;;;;4.15;1.65;;;-1.00;99.90;;;;;;5075548;28;20040;-77
2023/04/03 04:07:50;;;;;;;4.35;1.20;;;-1.80;99.90;;;;;;5073464;28;20109;-78
2023/04/03 04:10:16;;;;;;;2.65;1.33;;;-1.10;99.90;;;;;;5084322;28;20059;-78
2023/04/03 04:12:42;;;;;;;4.18;1.50;;;-1.20;99.90;;;;;;5063099;28;20063;-80
2023/04/03 04:15:08;;;;;;;5.13;1.48;;;-1.30;99.90;;;;;;5065918;28;20075;-78
2023/04/03 04:17:35;;;;;;;6.60;2.30;;;-1.70;99.90;;;;;;5071516;28;20051;-79
2023/04/03 04:20:02;;;;;;;4.45;1.55;;;-1.10;99.90;;;;;;5056199;28;20052;-80
2023/04/03 04:22:28;;;;;;;6.20;1.70;;;-1.60;99.90;;;;;;5072884;28;20477;-79
2023/04/03 04:24:54;;;;;;;5.68;1.67;;;-1.70;99.90;;;;;;5073689;28;20041;-78
2023/04/03 04:27:20;;;;;;;14.48;2.75;;;-1.80;99.90;;;;;;5072735;28;21052;-79
2023/04/03 04:29:45;;;;;;;6.57;1.77;;;-1.90;99.90;;;;;;5072992;28;20066;-77
2023/04/03 04:32:11;;;;;;;6.10;1.88;;;-1.30;99.90;;;;;;5077840;28;20076;-79
2023/04/03 04:34:37;;;;;;;5.30;1.83;;;-1.30;99.90;;;;;;5050354;28;20098;-82
2023/04/03 04:37:02;;;;;;;5.82;1.80;;;-1.60;99.90;;;;;;5053217;28;20044;-79
2023/04/03 04:39:28;;;;;;;4.28;1.73;;;-2.00;99.90;;;;;;5072638;28;20043;-78
2023/04/03 04:41:54;;;;;;;6.35;2.15;;;-1.40;99.90;;;;;;5059632;28;20063;-78
2023/04/03 04:44:20;;;;;;;7.03;1.67;;;-1.30;99.90;;;;;;5059686;28;20051;-78
2023/04/03 04:46:46;;;;;;;6.32;2.22;;;-1.40;99.90;;;;;;5076697;28;20048;-79
2023/04/03 04:49:12;;;;;;;7.70;2.35;;;-1.80;99.90;;;;;;5075007;28;20110;-79
2023/04/03 04:51:37;;;;;;;4.10;1.90;;;-1.50;99.90;;;;;;5084862;28;20408;-83
2023/04/03 04:54:03;;;;;;;4.97;2.03;;;-1.40;99.90;;;;;;5060454;28;20410;-79
2023/04/03 04:56:29;;;;;;;5.38;2.17;;;-1.80;99.90;;;;;;5073158;28;20473;-80
2023/04/03 04:58:54;;;;;;;6.82;2.50;;;-1.40;99.90;;;;;;5075936;28;20078;-77
2023/04/03 05:01:20;;;;;;;5.10;1.90;;;-1.40;99.90;;;;;;5086799;28;20472;-78
2023/04/03 05:03:47;;;;;;;5.82;2.22;;;-1.50;99.90;;;;;;5070312;28;20062;-78
2023/04/03 05:06:13;;;;;;;2.40;1.60;;;-1.20;99.90;;;;;;5078330;28;20428;-78
2023/04/03 05:08:39;;;;;;;6.28;1.92;;;-1.10;99.90;;;;;;5074764;28;20051;-78
2023/04/03 05:11:05;;;;;;;5.65;2.00;;;-1.30;99.90;;;;;;5079962;28;21379;-78
2023/04/03 05:13:31;;;;;;;6.07;2.40;;;-1.90;99.90;;;;;;5064285;28;20055;-80
2023/04/03 05:15:56;;;;;;;4.20;1.80;;;-1.40;99.90;;;;;;5077074;28;20617;-78
2023/04/03 05:18:22;;;;;;;4.97;2.42;;;-1.40;99.90;;;;;;5074828;28;20127;-80
2023/04/03 05:20:50;;;;;;;6.22;2.30;;;-1.50;99.90;;;;;;5090091;28;20066;-77
2023/04/03 05:23:16;;;;;;;6.18;2.25;;;-1.60;99.90;;;;;;5071678;28;20048;-79
2023/04/03 05:25:43;;;;;;;26.58;11.27;;;-1.10;99.90;;;;;;5073177;28;20389;-80
2023/04/03 05:28:09;;;;;;;10.73;4.13;;;-1.60;99.90;;;;;;5077763;28;20036;-77
2023/04/03 05:30:35;;;;;;;7.78;3.72;;;-1.40;99.90;;;;;;5080693;28;20044;-79
2023/04/03 05:33:01;;;;;;;12.82;7.65;;;-1.00;99.90;;;;;;5053207;28;20040;-78
2023/04/03 05:35:26;;;;;;;9.05;6.28;;;-1.30;99.90;;;;;;5072438;28;20113;-80
2023/04/03 05:37:52;;;;;;;7.55;3.35;;;-1.50;99.90;;;;;;5086692;28;20564;-77
2023/04/03 05:40:18;;;;;;;5.05;2.35;;;-1.10;99.90;;;;;;5054214;28;20086;-81
2023/04/03 05:42:44;;;;;;;4.78;2.85;;;-1.10;99.90;;;;;;5059202;28;20539;-81
2023/04/03 05:45:10;;;;;;;5.10;2.60;;;-2.30;99.90;;;;;;5043717;28;20048;-81
2023/04/03 05:47:36;;;;;;;9.82;3.10;;;-1.30;99.90;;;;;;5051661;28;20055;-81
2023/04/03 05:50:03;;;;;;;8.45;2.75;;;-1.00;99.90;;;;;;5038363;28;20044;-81
2023/04/03 05:52:31;;;;;;;6.68;3.40;;;-1.50;99.90;;;;;;5082382;28;20044;-82
2023/04/03 05:54:57;;;;;;;14.57;6.15;;;-1.20;99.90;;;;;;5071743;28;20064;-82
2023/04/03 05:57:23;;;;;;;8.10;3.25;;;-1.10;99.90;;;;;;5048170;28;20385;-81
2023/04/03 05:59:49;;;;;;;10.68;4.07;;;-0.70;99.90;;;;;;5044137;28;20048;-82
2023/04/03 06:02:23;;;;;;;10.85;3.53;;;-0.80;99.90;;;;;;5073943;28;20127;-81
2023/04/03 06:04:49;;;;;;;9.02;3.15;;;-0.80;99.90;;;;;;5065836;28;20048;-82
2023/04/03 06:07:18;;;;;;;5.38;2.97;;;0.00;99.90;;;;;;5069625;28;20528;-81
2023/04/03 06:09:43;;;;;;;8.05;3.33;;;-0.30;99.90;;;;;;5070632;28;20122;-81
2023/04/03 06:12:10;;;;;;;6.88;3.33;;;0.40;99.90;;;;;;5044960;28;20365;-81
2023/04/03 06:14:36;;;;;;;5.47;3.08;;;0.80;1.00;;;;;;5063790;28;20043;-78
2023/04/03 06:17:01;;;;;;;8.32;2.67;;;0.40;1.00;;;;;;5056540;28;20059;-79
2023/04/03 06:19:28;;;;;;;5.90;3.08;;;0.80;1.00;;;;;;5067368;28;20083;-79
2023/04/03 06:21:54;;;;;;;6.95;2.58;;;1.00;1.00;;;;;;5044213;28;20079;-78
2023/04/03 06:24:21;;;;;;;7.82;3.08;;;1.80;1.00;;;;;;5046784;28;20077;-79
2023/04/03 06:26:48;;;;;;;5.95;2.40;;;1.50;1.00;;;;;;5056226;28;20080;-79
2023/04/03 06:29:14;;;;;;;5.63;2.10;;;1.50;1.00;;;;;;5072579;28;20048;-79
2023/04/03 06:31:40;;;;;;;5.75;2.40;;;1.70;1.00;;;;;;5054029;28;20405;-79
2023/04/03 06:34:09;;;;;;;4.93;2.00;;;1.90;1.00;;;;;;5061214;28;20039;-79
2023/04/03 06:36:35;;;;;;;6.25;2.70;;;1.70;1.00;;;;;;5057736;28;20041;-79
2023/04/03 06:39:02;;;;;;;6.55;2.28;;;2.00;1.00;;;;;;5043847;28;20040;-79
2023/04/03 06:41:28;;;;;;;6.72;2.53;;;2.20;1.00;;;;;;5040356;28;20048;-79
2023/04/03 06:43:56;;;;;;;6.05;2.33;;;1.90;1.00;;;;;;5054357;28;20047;-79
2023/04/03 06:46:22;;;;;;;3.90;2.00;;;2.00;1.00;;;;;;5056650;28;20083;-79
2023/04/03 06:48:49;;;;;;;6.32;2.03;;;1.80;1.00;;;;;;5052469;28;20051;-79
2023/04/03 06:51:27;;;;;;;5.93;2.22;;;1.90;1.00;;;;;;5048665;28;20456;-79
2023/04/03 06:53:54;;;;;;;4.28;1.92;;;1.90;1.00;;;;;;5065062;28;20040;-79
2023/04/03 06:56:22;;;;;;;6.55;2.22;;;1.70;1.00;;;;;;5059898;28;20036;-79
2023/04/03 06:58:47;;;;;;;4.00;2.05;;;1.90;1.00;;;;;;5059875;28;20055;-79
2023/04/03 07:01:16;;;;;;;6.93;2.08;;;2.00;99.90;;;;;;5058603;28;20121;-79
2023/04/03 07:03:41;;;;;;;3.85;1.77;;;1.50;99.90;;;;;;5065690;28;20119;-79
2023/04/03 07:06:11;;;;;;;8.50;2.30;;;2.80;99.90;;;;;;5052060;28;20186;-79
2023/04/03 07:08:36;;;;;;;2.92;1.70;;;1.90;99.90;;;;;;5053794;28;20414;-78
2023/04/03 07:11:03;;;;;;;5.93;2.28;;;1.50;99.90;;;;;;5063404;28;20040;-79
2023/04/03 07:13:28;;;;;;;3.28;1.88;;;1.70;99.90;;;;;;5042956;28;20048;-79
2023/04/03 07:15:54;;;;;;;6.13;2.30;;;1.80;99.90;;;;;;5064012;28;20051;-79
2023/04/03 07:18:21;;;;;;;5.63;2.33;;;2.30;99.90;;;;;;5065596;28;20118;-79
2023/04/03 07:20:47;;;;;;;3.35;1.83;;;1.60;99.90;;;;;;5072001;28;20056;-78
2023/04/03 07:23:13;;;;;;;5.55;2.20;;;2.10;99.90;;;;;;5069492;28;20070;-79
2023/04/03 07:25:47;;;;;;;5.68;1.77;;;1.90;90.10;;;;;;5072262;28;20055;-78
2023/04/03 07:28:13;;;;;;;4.13;1.70;;;2.30;39.40;;;;;;5088594;28;20079;-79
2023/04/03 07:31:02;;;;;;;6.70;1.92;;;1.90;47.20;;;;;;5088762;28;20044;-79
2023/04/03 07:33:29;;;;;;;5.35;1.50;;;1.70;22.40;;;;;;5072153;28;20089;-79
2023/04/03 07:35:55;;;;;;;3.85;1.90;;;1.80;6.50;;;;;;5069808;28;20062;-79
2023/04/03 07:38:20;;;;;;;4.28;1.40;;;2.30;1.00;;;;;;5038366;28;20047;-81
2023/04/03 07:40:48;;;;;;;8.38;1.73;;;1.80;1.00;;;;;;5053871;28;20060;-81
2023/04/03 07:43:15;;;;;;;3.38;1.27;;;2.10;1.00;;;;;;5087807;28;20127;-81
2023/04/03 07:45:42;;;;;;;4.15;1.70;;;2.30;1.00;;;;;;5058486;28;20500;-79
2023/04/03 07:48:12;;;;;;;5.93;1.88;;;2.50;1.00;;;;;;5054319;28;20048;-81
2023/04/03 07:50:40;;;;;;;5.05;1.45;;;2.40;1.00;;;;;;5055084;28;20139;-82
2023/04/03 07:53:07;;;;;;;6.68;1.75;;;2.40;1.00;;;;;;5081736;28;20036;-82
2023/04/03 07:55:33;;;;;;;6.15;1.40;;;2.30;1.00;;;;;;5046870;28;20131;-82
2023/04/03 07:57:59;;;;;;;4.70;1.40;;;2.40;1.00;;;;;;5042920;28;20075;-81
2023/04/03 08:00:25;;;;;;;3.72;1.50;;;2.70;99.90;;;;;;5048124;28;20640;-81
2023/04/03 08:02:51;;;;;;;3.20;1.20;;;2.80;99.90;;;;;;5054363;28;20049;-78
2023/04/03 08:05:21;;;;;;;4.78;1.40;;;2.50;99.90;;;;;;5066565;28;20146;-81
2023/04/03 08:07:47;;;;;;;6.13;1.70;;;2.60;99.90;;;;;;5048763;28;20409;-81
2023/04/03 08:10:14;;;;;;;7.03;2.10;;;2.60;99.90;;;;;;5061328;28;20037;-81
2023/04/03 08:12:40;;;;;;;2.90;1.33;;;2.90;99.90;;;;;;5053696;28;20041;-81
2023/04/03 08:15:08;;;;;;;3.15;1.25;;;3.40;99.90;;;;;;5053209;28;20512;-78
2023/04/03 08:17:34;;;;;;;3.97;1.52;;;2.90;99.90;;;;;;5054199;28;20041;-79
2023/04/03 08:20:00;;;;;;;2.88;1.20;;;3.40;99.90;;;;;;5035701;28;20036;-79
2023/04/03 08:22:26;;;;;;;3.10;1.33;;;2.80;99.90;;;;;;5040379;28;20098;-79
2023/04/03 08:24:52;;;;;;;3.13;1.17;;;3.10;99.90;;;;;;5056606;28;20485;-79
2023/04/03 08:27:17;;;;;;;4.72;1.40;;;3.30;99.90;;;;;;5057717;28;20095;-79
2023/04/03 08:29:43;;;;;;;6.88;1.58;;;3.20;99.90;;;;;;5038897;28;20048;-78
2023/04/03 08:32:09;;;;;;;1.80;1.10;;;3.00;99.90;;;;;;5046462;28;20072;-78
2023/04/03 08:34:36;;;;;;;3.40;1.08;;;3.20;99.90;;;;;;5051600;28;20057;-78
2023/04/03 08:37:02;;;;;;;3.25;1.45;;;3.30;99.90;;;;;;5046038;28;20118;-78
2023/04/03 08:39:28;;;;;;;6.20;0.93;;;3.70;99.90;;;;;;5054773;28;20079;-78
2023/04/03 08:42:00;;;;;;;3.65;1.25;;;3.60;99.90;;;;;;5061942;28;20041;-78
2023/04/03 08:44:44;;;;;;;3.65;1.08;;;3.60;99.90;;;;;;5068726;28;20565;-78
2023/04/03 08:47:29;;;;;;;2.92;0.90;;;3.70;99.90;;;;;;5070958;28;20726;-78
2023/04/03 08:50:01;;;;;;;3.50;1.00;;;3.70;99.90;;;;;;5064469;28;20110;-78
2023/04/03 08:52:37;;;;;;;4.38;1.20;;;4.00;99.90;;;;;;5069223;28;20049;-81
2023/04/03 08:55:25;;;;;;;4.13;1.00;;;4.00;99.90;;;;;;5058976;28;20099;-79
2023/04/03 08:58:11;;;;;;;4.93;0.90;;;4.00;99.90;;;;;;5058015;28;20124;-78
2023/04/03 09:00:59;;;;;;;2.00;0.80;;;3.80;99.90;;;;;;5066319;28;20064;-78
2023/04/03 09:03:24;;;;;;;1.52;0.60;;;4.70;99.90;;;;;;5023906;28;20135;-78
2023/04/03 09:06:13;;;;;;;6.40;1.13;;;4.70;99.90;;;;;;5058836;28;20166;-77
2023/04/03 09:09:04;;;;;;;2.05;0.70;;;4.20;99.90;;;;;;5047854;28;20052;-78
2023/04/03 09:11:36;;;;;;;1.48;0.70;;;4.30;90.50;;;;;;5068241;28;20052;-78
2023/04/03 09:14:18;;;;;;;3.10;1.05;;;4.60;99.90;;;;;;5063138;28;20044;-78
2023/04/03 09:16:57;;;;;;;3.17;0.63;;;5.30;86.70;;;;;;5051800;28;20115;-78
2023/04/03 09:19:23;;;;;;;2.90;0.70;;;4.80;87.20;;;;;;5065803;28;20048;-78
2023/04/03 09:21:49;;;;;;;2.60;0.98;;;5.20;99.90;;;;;;5062416;28;20114;-78
2023/04/03 09:24:17;;;;;;;2.25;0.80;;;5.20;90.70;;;;;;5079134;28;20041;-78
2023/04/03 09:26:54;;;;;;;2.05;0.77;;;5.60;76.10;;;;;;5052250;28;20052;-78
2023/04/03 09:29:24;;;;;;;2.17;0.68;;;5.70;49.10;;;;;;5075961;28;20094;-78
2023/04/03 09:31:56;;;;;;;3.78;0.90;;;5.90;99.90;;;;;;5061783;28;20097;-78
2023/04/03 09:34:41;;;;;;;2.53;0.73;;;6.20;99.90;;;;;;5058927;28;20044;-79
2023/04/03 09:37:08;;;;;;;3.97;1.17;;;6.40;99.90;;;;;;5065222;28;20841;-78
2023/04/03 09:39:53;;;;;;;2.63;0.70;;;7.10;52.60;;;;;;5069224;28;20049;-78
2023/04/03 09:42:25;;;;;;;1.40;0.50;;;8.30;43.60;;;;;;5050818;28;20498;-79
2023/04/03 09:45:03;;;;;;;2.50;1.00;;;10.00;99.90;;;;;;5034529;28;20044;-78
2023/04/03 09:47:30;;;;;;;1.65;0.80;;;11.40;99.90;;;;;;5039355;28;20041;-79
2023/04/03 09:50:14;;;;;;;3.78;0.50;;;12.40;1.00;;;;;;5046973;28;20131;-79
2023/04/03 09:52:42;;;;;;;5.75;0.80;;;13.30;1.00;;;;;;5066742;28;20089;-79
2023/04/03 09:55:26;;;;;;;1.38;0.50;;;14.00;1.00;;;;;;5063304;28;20032;-79
2023/04/03 09:57:53;;;;;;;3.20;0.55;;;14.80;1.00;;;;;;5073720;28;20052;-79
2023/04/03 10:00:30;;;;;;;4.63;0.90;;;15.50;1.00;;;;;;5069591;28;20055;-79
2023/04/03 10:02:57;;;;;;;1.42;0.50;;;16.00;1.00;;;;;;5062020;28;20071;-79
2023/04/03 10:05:36;;;;;;;2.75;0.88;;;16.30;1.00;;;;;;5062737;28;20108;-79
2023/04/03 10:08:19;;;;;;;2.33;0.80;;;16.70;1.00;;;;;;5079048;28;20208;-78
2023/04/03 10:10:47;;;;;;;2.40;0.60;;;16.90;1.00;;;;;;5053160;28;20527;-81
2023/04/03 10:13:16;;;;;;;1.65;0.47;;;17.30;8.20;;;;;;5061420;28;20039;-78
2023/04/03 10:15:52;;;;;;;2.33;0.73;;;17.50;26.30;;;;;;5045683;28;20135;-79
2023/04/03 10:18:40;;;;;;;2.15;0.60;;;18.30;30.60;;;;;;5080346;28;20607;-79
2023/04/03 10:21:12;;;;;;;1.95;0.70;;;18.40;31.20;;;;;;5057970;28;20055;-79
2023/04/03 10:23:50;;;;;;;0.70;0.57;;;18.50;29.60;;;;;;5054024;28;20080;-79
2023/04/03 10:26:37;;;;;;;1.52;0.70;;;18.90;29.10;;;;;;5054307;28;20095;-79
2023/04/03 10:29:29;;;;;;;1.95;0.63;;;19.50;25.10;;;;;;5052169;28;20052;-79
2023/04/03 10:31:55;;;;;;;2.55;0.82;;;19.80;24.30;;;;;;5054307;28;20056;-79
2023/04/03 10:34:26;;;;;;;1.65;0.70;;;20.30;28.50;;;;;;5057156;28;20051;-79
2023/04/03 10:37:28;;;;;;;0.90;0.40;;;20.10;27.20;;;;;;5053392;28;20052;-79
2023/04/03 10:40:19;;;;;;;0.65;0.40;;;20.40;24.10;;;;;;5053474;28;20564;-79
2023/04/03 10:42:49;;;;;;;1.23;0.50;;;20.20;24.80;;;;;;5069032;28;20041;-79
2023/04/03 10:45:28;;;;;;;1.50;0.75;;;19.90;29.50;;;;;;5054160;28;20041;-79
2023/04/03 10:48:09;;;;;;;2.33;0.82;;;19.40;28.00;;;;;;5059590;28;20481;-79
2023/04/03 10:51:06;;;;;;;1.00;0.50;;;19.70;27.80;;;;;;5061962;28;20169;-79
2023/04/03 10:53:34;;;;;;;2.35;0.70;;;19.80;26.40;;;;;;5075641;28;20047;-80
2023/04/03 10:56:13;;;;;;;2.40;0.55;;;20.10;29.50;;;;;;5062400;28;20587;-80
2023/04/03 10:58:45;;;;;;;3.28;0.63;;;20.20;29.40;;;;;;5078329;28;20110;-80
2023/04/03 11:01:24;;;;;;;1.17;0.50;;;20.50;29.30;;;;;;5062207;28;20084;-80
2023/04/03 11:03:55;;;;;;;1.05;0.50;;;20.80;28.40;;;;;;5062610;28;20056;-80
2023/04/03 11:06:25;;;;;;;1.80;0.50;;;21.20;28.20;;;;;;5057249;28;20501;-79
2023/04/03 11:08:56;;;;;;;2.60;0.70;;;21.50;27.50;;;;;;5068603;28;20494;-80
2023/04/03 11:11:27;;;;;;;2.05;0.57;;;21.20;26.50;;;;;;5062524;28;20052;-79
2023/04/03 11:14:28;;;;;;;0.75;0.60;;;21.30;25.50;;;;;;5050593;28;20134;-79
2023/04/03 11:17:11;;;;;;;1.45;0.63;;;21.30;23.50;;;;;;5053915;28;20033;-80
2023/04/03 11:19:56;;;;;;;1.65;0.50;;;21.00;23.20;;;;;;5057529;28;20063;-80
2023/04/03 11:22:23;;;;;;;1.48;0.50;;;20.80;21.50;;;;;;5070653;28;20759;-80
2023/04/03 11:25:11;;;;;;;2.03;0.60;;;20.60;26.00;;;;;;5082693;28;20084;-80
2023/04/03 11:27:47;;;;;;;2.72;0.90;;;21.00;23.30;;;;;;5065827;28;20409;-79
2023/04/03 11:30:58;;;;;;;2.30;0.88;;;21.00;25.00;;;;;;5054745;28;20044;-80
2023/04/03 11:33:44;;;;;;;1.80;0.60;;;21.30;20.20;;;;;;5034187;28;20052;-80
2023/04/03 11:36:18;;;;;;;1.42;0.75;;;21.50;22.70;;;;;;5045511;28;20045;-80
2023/04/03 11:38:45;;;;;;;1.85;0.70;;;21.40;25.10;;;;;;5053020;28;20053;-80
2023/04/03 11:41:13;;;;;;;2.45;0.75;;;21.40;24.80;;;;;;5054090;28;20509;-79
2023/04/03 11:44:00;;;;;;;1.40;0.75;;;21.30;24.10;;;;;;5044686;28;20044;-80
2023/04/03 11:47:01;;;;;;;1.58;0.45;;;21.40;21.50;;;;;;5048984;28;20414;-80
2023/04/03 11:49:50;;;;;;;1.23;0.50;;;21.50;21.60;;;;;;5055890;28;20056;-80
2023/04/03 11:52:38;;;;;;;2.28;0.68;;;21.80;22.00;;;;;;5054427;28;20068;-80
2023/04/03 11:55:41;;;;;;;1.88;0.70;;;22.20;22.10;;;;;;5053749;28;20091;-80
2023/04/03 11:58:17;;;;;;;1.52;0.68;;;22.40;20.80;;;;;;5039836;28;20416;-80
2023/04/03 12:00:51;;;;;;;1.25;0.57;;;22.60;22.70;;;;;;5051240;28;20133;-80
2023/04/03 12:03:26;;;;;;;4.30;0.70;;;22.80;22.60;;;;;;5052208;28;20075;-80
2023/04/03 12:06:00;;;;;;;1.75;0.77;;;22.50;20.50;;;;;;5067457;28;20139;-79
2023/04/03 12:08:43;;;;;;;2.38;0.73;;;22.50;21.90;;;;;;5055071;28;20495;-81
2023/04/03 12:11:08;;;;;;;2.50;0.52;;;22.10;21.30;;;;;;5069274;28;20055;-80
2023/04/03 12:13:55;;;;;;;2.00;0.60;;;22.00;22.20;;;;;;5051344;28;20397;-80
2023/04/03 12:16:27;;;;;;;1.20;0.70;;;21.90;18.40;;;;;;5054149;28;20083;-79
2023/04/03 12:18:53;;;;;;;1.98;0.80;;;21.90;22.40;;;;;;5049510;28;20048;-80
2023/04/03 12:21:29;;;;;;;2.10;0.70;;;22.10;22.60;;;;;;5061669;28;20063;-80
2023/04/03 12:24:01;;;;;;;2.08;0.77;;;22.60;22.50;;;;;;5055874;28;20506;-80
2023/04/03 12:26:50;;;;;;;1.67;0.68;;;23.20;22.20;;;;;;5067698;28;20056;-80
2023/04/03 12:29:34;;;;;;;1.58;0.90;;;23.20;19.10;;;;;;5084503;28;20048;-80
2023/04/03 12:32:06;;;;;;;1.63;0.73;;;22.60;18.10;;;;;;5056269;28;20044;-80
2023/04/03 12:35:09;;;;;;;1.85;0.80;;;22.20;21.20;;;;;;5066156;28;20051;-80
2023/04/03 12:38:13;;;;;;;1.45;0.65;;;22.10;18.70;;;;;;5083928;28;20115;-80
2023/04/03 12:40:56;;;;;;;1.85;0.90;;;22.00;18.40;;;;;;5067373;28;20091;-79
2023/04/03 12:43:25;;;;;;;1.00;0.50;;;21.80;20.40;;;;;;5065055;28;20102;-79
2023/04/03 12:45:56;;;;;;;1.38;0.80;;;22.10;21.20;;;;;;5062844;28;20576;-80
2023/04/03 12:48:27;;;;;;;1.98;0.80;;;21.90;21.40;;;;;;5066659;28;20466;-80
2023/04/03 12:50:54;;;;;;;2.22;0.75;;;22.00;19.80;;;;;;5043788;28;20053;-80
2023/04/03 12:53:38;;;;;;;2.33;0.80;;;22.30;21.30;;;;;;5060592;28;20501;-80
2023/04/03 12:56:21;;;;;;;1.80;0.63;;;22.40;20.30;;;;;;5056222;28;20045;-80
2023/04/03 12:58:48;;;;;;;2.28;1.00;;;22.90;18.30;;;;;;5060856;28;20075;-79
2023/04/03 13:01:18;;;;;;;3.45;0.95;;;22.60;20.20;;;;;;5053517;28;20045;-79
2023/04/03 13:03:53;;;;;;;1.73;0.90;;;22.40;20.30;;;;;;5055597;28;20048;-79
2023/04/03 13:06:37;;;;;;;1.45;0.70;;;22.40;18.70;;;;;;5051712;28;20049;-79
2023/04/03 13:09:04;;;;;;;1.73;0.63;;;22.30;17.70;;;;;;5057077;28;20060;-80